sensor_id;sensor_type;location;lat;lon;timestamp;temperature;humidity
435;DHT22;204;48.942;9.256;2023-05-02T00:02:15;10.50;1.00
435;DHT22;204;48.942;9.256;2023-05-02T00:04:40;10.50;1.00
435;DHT22;204;48.942;9.256;2023-05-02T00:07:06;10.40;1.00
435;DHT22;204;48.942;9.256;2023-05-02T00:09:32;10.40;1.00
435;DHT22;204;48.942;9.256;2023-05-02T00:11:57;10.30;1.00
435;DHT22;204;48.942;9.256;2023-05-02T00:14:24;10.20;1.00
435;DHT22;204;48.942;9.256;2023-05-02T00:16:49;10.20;1.00
435;DHT22;204;48.942;9.256;2023-05-02T00:19:15;10.10;1.00
435;DHT22;204;48.942;9.256;2023-05-02T00:21:40;10.10;1.00
435;DHT22;204;48.942;9.256;2023-05-02T00:24:06;10.00;1.00
435;DHT22;204;48.942;9.256;2023-05-02T00:26:32;9.90;1.00
435;DHT22;204;48.942;9.256;2023-05-02T00:28:57;9.90;1.00
435;DHT22;204;48.942;9.256;2023-05-02T00:31:23;9.80;1.00
435;DHT22;204;48.942;9.256;2023-05-02T00:33:49;9.70;1.00
435;DHT22;204;48.942;9.256;2023-05-02T00:36:15;9.70;1.00
435;DHT22;204;48.942;9.256;2023-05-02T00:38:40;9.70;1.00
435;DHT22;204;48.942;9.256;2023-05-02T00:41:06;9.60;1.00
435;DHT22;204;48.942;9.256;2023-05-02T00:43:32;9.60;1.00
435;DHT22;204;48.942;9.256;2023-05-02T00:45:57;9.50;1.00
435;DHT22;204;48.942;9.256;2023-05-02T00:48:24;9.50;1.00
435;DHT22;204;48.942;9.256;2023-05-02T00:50:50;9.50;1.00
435;DHT22;204;48.942;9.256;2023-05-02T00:53:15;9.50;1.00
435;DHT22;204;48.942;9.256;2023-05-02T00:55:41;9.40;1.00
435;DHT22;204;48.942;9.256;2023-05-02T00:58:14;9.40;1.00
435;DHT22;204;48.942;9.256;2023-05-02T01:00:58;9.40;1.00
435;DHT22;204;48.942;9.256;2023-05-02T01:11:43;9.40;1.00
435;DHT22;204;48.942;9.256;2023-05-02T01:14:13;9.40;1.00
435;DHT22;204;48.942;9.256;2023-05-02T01:16:40;9.40;1.00
435;DHT22;204;48.942;9.256;2023-05-02T01:19:23;9.40;1.00
435;DHT22;204;48.942;9.256;2023-05-02T01:21:50;9.30;1.00
435;DHT22;204;48.942;9.256;2023-05-02T01:24:31;9.40;1.00
435;DHT22;204;48.942;9.256;2023-05-02T01:27:27;9.40;1.00
435;DHT22;204;48.942;9.256;2023-05-02T01:29:56;9.40;1.00
435;DHT22;204;48.942;9.256;2023-05-02T01:32:23;9.30;1.00
435;DHT22;204;48.942;9.256;2023-05-02T01:34:52;9.30;1.00
435;DHT22;204;48.942;9.256;2023-05-02T01:37:19;9.30;1.00
435;DHT22;204;48.942;9.256;2023-05-02T01:39:46;9.30;1.00
435;DHT22;204;48.942;9.256;2023-05-02T01:42:14;9.30;1.00
435;DHT22;204;48.942;9.256;2023-05-02T01:44:42;9.30;1.00
435;DHT22;204;48.942;9.256;2023-05-02T01:47:09;9.30;1.00
435;DHT22;204;48.942;9.256;2023-05-02T01:49:35;9.30;1.00
435;DHT22;204;48.942;9.256;2023-05-02T01:52:04;9.30;1.00
435;DHT22;204;48.942;9.256;2023-05-02T01:54:34;9.30;1.00
435;DHT22;204;48.942;9.256;2023-05-02T01:57:02;9.30;1.00
435;DHT22;204;48.942;9.256;2023-05-02T01:59:29;9.30;1.00
435;DHT22;204;48.942;9.256;2023-05-02T02:01:56;9.30;1.00
435;DHT22;204;48.942;9.256;2023-05-02T02:04:24;9.40;1.00
435;DHT22;204;48.942;9.256;2023-05-02T02:06:56;9.40;1.00
435;DHT22;204;48.942;9.256;2023-05-02T02:09:22;9.30;1.00
435;DHT22;204;48.942;9.256;2023-05-02T02:15:18;9.20;1.00
435;DHT22;204;48.942;9.256;2023-05-02T02:17:54;9.10;1.00
435;DHT22;204;48.942;9.256;2023-05-02T02:20:21;9.00;1.00
435;DHT22;204;48.942;9.256;2023-05-02T02:22:47;9.00;1.00
435;DHT22;204;48.942;9.256;2023-05-02T02:25:16;8.90;1.00
435;DHT22;204;48.942;9.256;2023-05-02T02:27:43;8.90;1.00
435;DHT22;204;48.942;9.256;2023-05-02T02:30:09;8.90;1.00
435;DHT22;204;48.942;9.256;2023-05-02T02:32:35;8.80;1.00
435;DHT22;204;48.942;9.256;2023-05-02T02:35:01;8.80;1.00
435;DHT22;204;48.942;9.256;2023-05-02T02:37:36;8.70;1.00
435;DHT22;204;48.942;9.256;2023-05-02T02:45:37;8.60;1.00
435;DHT22;204;48.942;9.256;2023-05-02T02:51:07;8.60;1.00
435;DHT22;204;48.942;9.256;2023-05-02T02:56:48;8.60;1.00
435;DHT22;204;48.942;9.256;2023-05-02T02:59:22;8.60;1.00
435;DHT22;204;48.942;9.256;2023-05-02T03:02:07;8.60;1.00
435;DHT22;204;48.942;9.256;2023-05-02T03:04:37;8.60;1.00
435;DHT22;204;48.942;9.256;2023-05-02T03:07:03;8.60;1.00
435;DHT22;204;48.942;9.256;2023-05-02T03:09:43;8.60;1.00
435;DHT22;204;48.942;9.256;2023-05-02T03:12:08;8.70;1.00
435;DHT22;204;48.942;9.256;2023-05-02T03:14:35;8.80;1.00
435;DHT22;204;48.942;9.256;2023-05-02T03:17:01;8.80;1.00
435;DHT22;204;48.942;9.256;2023-05-02T03:19:28;8.80;1.00
435;DHT22;204;48.942;9.256;2023-05-02T03:21:53;8.90;1.00
435;DHT22;204;48.942;9.256;2023-05-02T03:24:19;9.00;1.00
435;DHT22;204;48.942;9.256;2023-05-02T03:26:45;9.00;1.00
435;DHT22;204;48.942;9.256;2023-05-02T03:29:12;9.00;1.00
435;DHT22;204;48.942;9.256;2023-05-02T03:31:37;9.10;1.00
435;DHT22;204;48.942;9.256;2023-05-02T03:34:03;9.10;1.00
435;DHT22;204;48.942;9.256;2023-05-02T03:36:28;9.20;1.00
435;DHT22;204;48.942;9.256;2023-05-02T03:38:54;9.20;1.00
435;DHT22;204;48.942;9.256;2023-05-02T03:41:20;9.30;1.00
435;DHT22;204;48.942;9.256;2023-05-02T03:43:46;9.40;1.00
435;DHT22;204;48.942;9.256;2023-05-02T03:46:11;9.40;1.00
435;DHT22;204;48.942;9.256;2023-05-02T03:48:37;9.50;1.00
435;DHT22;204;48.942;9.256;2023-05-02T03:51:04;9.50;1.00
435;DHT22;204;48.942;9.256;2023-05-02T03:53:30;9.60;1.00
435;DHT22;204;48.942;9.256;2023-05-02T03:55:56;9.60;1.00
435;DHT22;204;48.942;9.256;2023-05-02T03:58:22;9.70;1.00
435;DHT22;204;48.942;9.256;2023-05-02T04:00:49;9.70;1.00
435;DHT22;204;48.942;9.256;2023-05-02T04:03:17;9.80;1.00
435;DHT22;204;48.942;9.256;2023-05-02T04:05:42;9.80;1.00
435;DHT22;204;48.942;9.256;2023-05-02T04:08:08;9.80;1.00
435;DHT22;204;48.942;9.256;2023-05-02T04:10:34;9.80;1.00
435;DHT22;204;48.942;9.256;2023-05-02T04:13:00;9.80;1.00
435;DHT22;204;48.942;9.256;2023-05-02T04:15:27;9.80;1.00
435;DHT22;204;48.942;9.256;2023-05-02T04:17:53;9.90;1.00
435;DHT22;204;48.942;9.256;2023-05-02T04:20:18;9.90;1.00
435;DHT22;204;48.942;9.256;2023-05-02T04:22:44;9.90;1.00
435;DHT22;204;48.942;9.256;2023-05-02T04:25:12;9.90;1.00
435;DHT22;204;48.942;9.256;2023-05-02T04:27:38;9.90;1.00
435;DHT22;204;48.942;9.256;2023-05-02T04:30:04;9.90;1.00
435;DHT22;204;48.942;9.256;2023-05-02T04:32:30;9.90;1.00
435;DHT22;204;48.942;9.256;2023-05-02T04:34:56;9.90;1.00
435;DHT22;204;48.942;9.256;2023-05-02T04:37:21;9.90;1.00
435;DHT22;204;48.942;9.256;2023-05-02T04:39:47;10.00;1.00
435;DHT22;204;48.942;9.256;2023-05-02T04:42:13;10.00;1.00
435;DHT22;204;48.942;9.256;2023-05-02T04:44:38;10.00;1.00
435;DHT22;204;48.942;9.256;2023-05-02T04:47:04;10.00;1.00
435;DHT22;204;48.942;9.256;2023-05-02T04:49:30;10.10;1.00
435;DHT22;204;48.942;9.256;2023-05-02T04:51:56;10.10;1.00
435;DHT22;204;48.942;9.256;2023-05-02T04:54:22;10.20;1.00
435;DHT22;204;48.942;9.256;2023-05-02T04:56:49;10.30;1.00
435;DHT22;204;48.942;9.256;2023-05-02T04:59:15;10.30;1.00
435;DHT22;204;48.942;9.256;2023-05-02T05:01:41;10.40;1.00
435;DHT22;204;48.942;9.256;2023-05-02T05:04:07;10.50;1.00
435;DHT22;204;48.942;9.256;2023-05-02T05:06:32;10.50;1.00
435;DHT22;204;48.942;9.256;2023-05-02T05:08:58;10.60;1.00
435;DHT22;204;48.942;9.256;2023-05-02T05:11:24;10.70;1.00
435;DHT22;204;48.942;9.256;2023-05-02T05:13:50;10.80;1.00
435;DHT22;204;48.942;9.256;2023-05-02T05:16:16;10.80;1.00
435;DHT22;204;48.942;9.256;2023-05-02T05:18:41;11.00;1.00
435;DHT22;204;48.942;9.256;2023-05-02T05:21:08;11.10;1.00
435;DHT22;204;48.942;9.256;2023-05-02T05:23:34;11.20;1.00
435;DHT22;204;48.942;9.256;2023-05-02T05:26:14;11.30;1.00
435;DHT22;204;48.942;9.256;2023-05-02T05:28:40;11.40;1.00
435;DHT22;204;48.942;9.256;2023-05-02T05:31:12;11.50;1.00
435;DHT22;204;48.942;9.256;2023-05-02T05:33:40;11.60;1.00
435;DHT22;204;48.942;9.256;2023-05-02T05:36:07;11.80;1.00
435;DHT22;204;48.942;9.256;2023-05-02T05:38:33;11.90;1.00
435;DHT22;204;48.942;9.256;2023-05-02T05:40:59;12.00;1.00
435;DHT22;204;48.942;9.256;2023-05-02T05:43:25;12.20;1.00
435;DHT22;204;48.942;9.256;2023-05-02T05:45:52;12.30;1.00
435;DHT22;204;48.942;9.256;2023-05-02T05:48:17;12.50;1.00
435;DHT22;204;48.942;9.256;2023-05-02T05:50:43;12.70;1.00
435;DHT22;204;48.942;9.256;2023-05-02T05:53:08;12.80;1.00
435;DHT22;204;48.942;9.256;2023-05-02T05:55:34;13.00;1.00
435;DHT22;204;48.942;9.256;2023-05-02T05:58:00;13.20;1.00
435;DHT22;204;48.942;9.256;2023-05-02T06:00:26;13.30;1.00
435;DHT22;204;48.942;9.256;2023-05-02T06:02:51;13.40;1.00
435;DHT22;204;48.942;9.256;2023-05-02T06:05:17;13.70;1.00
435;DHT22;204;48.942;9.256;2023-05-02T06:07:42;13.80;1.00
435;DHT22;204;48.942;9.256;2023-05-02T06:10:08;14.00;1.00
435;DHT22;204;48.942;9.256;2023-05-02T06:12:35;14.20;1.00
435;DHT22;204;48.942;9.256;2023-05-02T06:15:00;14.30;1.00
435;DHT22;204;48.942;9.256;2023-05-02T06:17:26;14.50;1.00
435;DHT22;204;48.942;9.256;2023-05-02T06:19:51;14.60;1.00
435;DHT22;204;48.942;9.256;2023-05-02T06:22:17;14.70;1.00
435;DHT22;204;48.942;9.256;2023-05-02T06:24:43;14.90;1.00
435;DHT22;204;48.942;9.256;2023-05-02T06:27:08;15.00;1.00
435;DHT22;204;48.942;9.256;2023-05-02T06:29:34;15.10;1.00
435;DHT22;204;48.942;9.256;2023-05-02T06:31:59;15.30;1.00
435;DHT22;204;48.942;9.256;2023-05-02T06:34:25;15.40;1.00
435;DHT22;204;48.942;9.256;2023-05-02T06:36:56;15.50;1.00
435;DHT22;204;48.942;9.256;2023-05-02T06:39:22;15.60;1.00
435;DHT22;204;48.942;9.256;2023-05-02T06:41:47;15.70;1.00
435;DHT22;204;48.942;9.256;2023-05-02T06:44:13;15.80;1.00
435;DHT22;204;48.942;9.256;2023-05-02T06:46:39;15.80;1.00
435;DHT22;204;48.942;9.256;2023-05-02T06:49:04;15.80;1.00
435;DHT22;204;48.942;9.256;2023-05-02T06:51:30;15.90;1.00
435;DHT22;204;48.942;9.256;2023-05-02T06:53:56;15.80;1.00
435;DHT22;204;48.942;9.256;2023-05-02T06:56:23;15.80;1.00
435;DHT22;204;48.942;9.256;2023-05-02T06:58:50;15.80;1.00
435;DHT22;204;48.942;9.256;2023-05-02T07:01:16;15.80;1.00
435;DHT22;204;48.942;9.256;2023-05-02T07:03:41;15.80;1.00
435;DHT22;204;48.942;9.256;2023-05-02T07:06:07;15.70;1.00
435;DHT22;204;48.942;9.256;2023-05-02T07:08:32;15.70;1.00
435;DHT22;204;48.942;9.256;2023-05-02T07:10:58;15.70;1.00
435;DHT22;204;48.942;9.256;2023-05-02T07:13:24;15.70;1.00
435;DHT22;204;48.942;9.256;2023-05-02T07:15:49;15.80;1.00
435;DHT22;204;48.942;9.256;2023-05-02T07:18:15;15.80;1.00
435;DHT22;204;48.942;9.256;2023-05-02T07:20:40;15.80;1.00
435;DHT22;204;48.942;9.256;2023-05-02T07:23:07;15.80;1.00
435;DHT22;204;48.942;9.256;2023-05-02T07:25:33;15.90;1.00
435;DHT22;204;48.942;9.256;2023-05-02T07:27:59;15.90;1.00
435;DHT22;204;48.942;9.256;2023-05-02T07:30:24;16.00;1.00
435;DHT22;204;48.942;9.256;2023-05-02T07:32:50;16.10;1.00
435;DHT22;204;48.942;9.256;2023-05-02T07:35:16;16.10;1.00
435;DHT22;204;48.942;9.256;2023-05-02T07:37:41;16.30;1.00
435;DHT22;204;48.942;9.256;2023-05-02T07:40:07;16.40;1.00
435;DHT22;204;48.942;9.256;2023-05-02T07:42:34;16.50;1.00
435;DHT22;204;48.942;9.256;2023-05-02T07:45:00;16.60;1.00
435;DHT22;204;48.942;9.256;2023-05-02T07:47:26;16.80;1.00
435;DHT22;204;48.942;9.256;2023-05-02T07:49:53;16.90;1.00
435;DHT22;204;48.942;9.256;2023-05-02T07:52:19;17.10;1.00
435;DHT22;204;48.942;9.256;2023-05-02T07:54:47;17.30;1.00
435;DHT22;204;48.942;9.256;2023-05-02T07:57:12;17.40;1.00
435;DHT22;204;48.942;9.256;2023-05-02T07:59:38;17.50;1.00
435;DHT22;204;48.942;9.256;2023-05-02T08:02:04;17.60;1.00
435;DHT22;204;48.942;9.256;2023-05-02T08:04:29;17.80;1.00
435;DHT22;204;48.942;9.256;2023-05-02T08:06:55;17.80;1.00
435;DHT22;204;48.942;9.256;2023-05-02T08:09:21;17.90;1.00
435;DHT22;204;48.942;9.256;2023-05-02T08:11:46;18.10;1.00
435;DHT22;204;48.942;9.256;2023-05-02T08:14:12;18.30;1.00
435;DHT22;204;48.942;9.256;2023-05-02T08:16:38;18.40;1.00
435;DHT22;204;48.942;9.256;2023-05-02T08:19:03;18.50;1.00
435;DHT22;204;48.942;9.256;2023-05-02T08:21:29;18.60;1.00
435;DHT22;204;48.942;9.256;2023-05-02T08:23:57;18.70;1.00
435;DHT22;204;48.942;9.256;2023-05-02T08:26:23;18.90;1.00
435;DHT22;204;48.942;9.256;2023-05-02T08:28:50;18.90;1.00
435;DHT22;204;48.942;9.256;2023-05-02T08:31:16;19.10;1.00
435;DHT22;204;48.942;9.256;2023-05-02T08:33:42;19.30;1.00
435;DHT22;204;48.942;9.256;2023-05-02T08:36:15;19.40;1.00
435;DHT22;204;48.942;9.256;2023-05-02T08:38:42;19.50;1.00
435;DHT22;204;48.942;9.256;2023-05-02T08:41:12;19.60;1.00
435;DHT22;204;48.942;9.256;2023-05-02T08:43:39;19.70;1.00
435;DHT22;204;48.942;9.256;2023-05-02T08:46:05;19.80;1.00
435;DHT22;204;48.942;9.256;2023-05-02T08:48:35;19.80;1.00
435;DHT22;204;48.942;9.256;2023-05-02T08:51:02;19.80;1.00
435;DHT22;204;48.942;9.256;2023-05-02T08:53:32;19.90;1.00
435;DHT22;204;48.942;9.256;2023-05-02T08:55:58;20.00;1.00
435;DHT22;204;48.942;9.256;2023-05-02T08:58:25;20.00;1.00
435;DHT22;204;48.942;9.256;2023-05-02T09:00:51;20.10;1.00
435;DHT22;204;48.942;9.256;2023-05-02T09:03:30;20.30;1.00
435;DHT22;204;48.942;9.256;2023-05-02T09:08:33;20.50;1.00
435;DHT22;204;48.942;9.256;2023-05-02T09:11:00;20.60;1.00
435;DHT22;204;48.942;9.256;2023-05-02T09:13:31;20.70;1.00
435;DHT22;204;48.942;9.256;2023-05-02T09:16:08;20.80;1.00
435;DHT22;204;48.942;9.256;2023-05-02T09:18:55;21.00;1.00
435;DHT22;204;48.942;9.256;2023-05-02T09:21:25;21.30;1.00
435;DHT22;204;48.942;9.256;2023-05-02T09:23:56;21.40;1.00
435;DHT22;204;48.942;9.256;2023-05-02T09:26:23;21.60;1.00
435;DHT22;204;48.942;9.256;2023-05-02T09:28:56;21.70;1.00
435;DHT22;204;48.942;9.256;2023-05-02T09:31:23;21.90;1.00
435;DHT22;204;48.942;9.256;2023-05-02T09:33:53;21.80;1.00
435;DHT22;204;48.942;9.256;2023-05-02T09:36:20;21.80;1.00
435;DHT22;204;48.942;9.256;2023-05-02T09:38:47;21.60;1.00
435;DHT22;204;48.942;9.256;2023-05-02T09:41:14;21.30;1.00
435;DHT22;204;48.942;9.256;2023-05-02T09:43:40;21.00;1.00
435;DHT22;204;48.942;9.256;2023-05-02T09:46:07;20.70;1.00
435;DHT22;204;48.942;9.256;2023-05-02T09:48:51;20.50;1.00
435;DHT22;204;48.942;9.256;2023-05-02T09:51:20;20.40;1.00
435;DHT22;204;48.942;9.256;2023-05-02T09:53:46;20.30;1.00
435;DHT22;204;48.942;9.256;2023-05-02T09:56:11;20.10;1.00
435;DHT22;204;48.942;9.256;2023-05-02T09:58:37;20.10;1.00
435;DHT22;204;48.942;9.256;2023-05-02T10:01:03;20.20;1.00
435;DHT22;204;48.942;9.256;2023-05-02T10:03:29;20.30;1.00
435;DHT22;204;48.942;9.256;2023-05-02T10:05:56;20.30;1.00
435;DHT22;204;48.942;9.256;2023-05-02T10:08:26;20.30;1.00
435;DHT22;204;48.942;9.256;2023-05-02T10:10:57;20.40;1.00
435;DHT22;204;48.942;9.256;2023-05-02T10:13:24;20.50;1.00
435;DHT22;204;48.942;9.256;2023-05-02T10:16:19;20.60;1.00
435;DHT22;204;48.942;9.256;2023-05-02T10:18:51;20.70;1.00
435;DHT22;204;48.942;9.256;2023-05-02T10:21:24;20.80;1.00
435;DHT22;204;48.942;9.256;2023-05-02T10:23:53;20.80;1.00
435;DHT22;204;48.942;9.256;2023-05-02T10:26:19;20.90;1.00
435;DHT22;204;48.942;9.256;2023-05-02T10:28:49;21.00;1.00
435;DHT22;204;48.942;9.256;2023-05-02T10:31:16;21.20;1.00
435;DHT22;204;48.942;9.256;2023-05-02T10:33:42;21.20;1.00
435;DHT22;204;48.942;9.256;2023-05-02T10:36:10;21.30;1.00
435;DHT22;204;48.942;9.256;2023-05-02T10:38:39;21.60;1.00
435;DHT22;204;48.942;9.256;2023-05-02T10:41:20;22.00;1.00
435;DHT22;204;48.942;9.256;2023-05-02T10:43:48;22.30;99.90
435;DHT22;204;48.942;9.256;2023-05-02T10:49:06;22.90;99.90
435;DHT22;204;48.942;9.256;2023-05-02T10:51:34;23.20;99.90
435;DHT22;204;48.942;9.256;2023-05-02T10:54:22;23.30;99.90
435;DHT22;204;48.942;9.256;2023-05-02T10:57:07;23.70;99.90
435;DHT22;204;48.942;9.256;2023-05-02T10:59:42;23.90;99.90
435;DHT22;204;48.942;9.256;2023-05-02T11:05:03;23.90;99.90
435;DHT22;204;48.942;9.256;2023-05-02T11:07:30;23.50;99.90
435;DHT22;204;48.942;9.256;2023-05-02T11:20:39;22.10;99.90
435;DHT22;204;48.942;9.256;2023-05-02T11:25:47;21.90;99.90
435;DHT22;204;48.942;9.256;2023-05-02T11:28:45;22.00;99.90
435;DHT22;204;48.942;9.256;2023-05-02T11:33:58;22.60;99.90
435;DHT22;204;48.942;9.256;2023-05-02T11:36:31;23.10;99.90
435;DHT22;204;48.942;9.256;2023-05-02T11:39:03;23.70;99.90
435;DHT22;204;48.942;9.256;2023-05-02T11:41:42;24.20;99.90
435;DHT22;204;48.942;9.256;2023-05-02T11:44:08;24.80;99.90
435;DHT22;204;48.942;9.256;2023-05-02T11:46:39;25.10;99.90
435;DHT22;204;48.942;9.256;2023-05-02T11:49:05;25.20;99.90
435;DHT22;204;48.942;9.256;2023-05-02T11:51:32;24.80;99.90
435;DHT22;204;48.942;9.256;2023-05-02T11:53:58;24.60;99.90
435;DHT22;204;48.942;9.256;2023-05-02T11:56:24;24.30;99.90
435;DHT22;204;48.942;9.256;2023-05-02T11:59:00;23.80;99.90
435;DHT22;204;48.942;9.256;2023-05-02T12:01:27;23.00;99.90
435;DHT22;204;48.942;9.256;2023-05-02T12:04:06;22.10;99.90
435;DHT22;204;48.942;9.256;2023-05-02T12:06:32;21.10;1.00
435;DHT22;204;48.942;9.256;2023-05-02T12:11:32;19.60;1.00
435;DHT22;204;48.942;9.256;2023-05-02T12:13:59;19.10;1.00
435;DHT22;204;48.942;9.256;2023-05-02T12:16:25;18.70;1.00
435;DHT22;204;48.942;9.256;2023-05-02T12:18:51;18.50;1.00
435;DHT22;204;48.942;9.256;2023-05-02T12:21:17;18.20;1.00
435;DHT22;204;48.942;9.256;2023-05-02T12:23:43;18.00;1.00
435;DHT22;204;48.942;9.256;2023-05-02T12:26:22;18.00;1.00
435;DHT22;204;48.942;9.256;2023-05-02T12:28:56;17.90;1.00
435;DHT22;204;48.942;9.256;2023-05-02T12:31:24;17.70;1.00
435;DHT22;204;48.942;9.256;2023-05-02T12:33:50;17.60;1.00
435;DHT22;204;48.942;9.256;2023-05-02T12:36:17;17.80;1.00
435;DHT22;204;48.942;9.256;2023-05-02T12:38:53;17.90;1.00
435;DHT22;204;48.942;9.256;2023-05-02T12:43:58;18.20;1.00
435;DHT22;204;48.942;9.256;2023-05-02T12:46:25;18.50;1.00
435;DHT22;204;48.942;9.256;2023-05-02T12:49:05;18.80;1.00
435;DHT22;204;48.942;9.256;2023-05-02T12:51:33;19.20;1.00
435;DHT22;204;48.942;9.256;2023-05-02T12:53:59;19.40;1.00
435;DHT22;204;48.942;9.256;2023-05-02T12:56:25;19.50;1.00
435;DHT22;204;48.942;9.256;2023-05-02T12:58:56;19.60;1.00
435;DHT22;204;48.942;9.256;2023-05-02T13:01:25;19.60;1.00
435;DHT22;204;48.942;9.256;2023-05-02T13:03:51;19.80;1.00
435;DHT22;204;48.942;9.256;2023-05-02T13:06:17;19.90;1.00
435;DHT22;204;48.942;9.256;2023-05-02T13:08:43;20.00;1.00
435;DHT22;204;48.942;9.256;2023-05-02T13:11:09;20.20;1.00
435;DHT22;204;48.942;9.256;2023-05-02T13:13:36;20.30;1.00
435;DHT22;204;48.942;9.256;2023-05-02T13:16:02;20.30;1.00
435;DHT22;204;48.942;9.256;2023-05-02T13:18:28;20.40;1.00
435;DHT22;204;48.942;9.256;2023-05-02T13:20:53;20.50;1.00
435;DHT22;204;48.942;9.256;2023-05-02T13:23:19;20.40;1.00
435;DHT22;204;48.942;9.256;2023-05-02T13:25:44;20.50;1.00
435;DHT22;204;48.942;9.256;2023-05-02T13:28:10;20.60;1.00
435;DHT22;204;48.942;9.256;2023-05-02T13:30:36;20.60;1.00
435;DHT22;204;48.942;9.256;2023-05-02T13:33:01;20.60;1.00
435;DHT22;204;48.942;9.256;2023-05-02T13:35:27;20.70;1.00
435;DHT22;204;48.942;9.256;2023-05-02T13:37:52;20.80;1.00
435;DHT22;204;48.942;9.256;2023-05-02T13:40:18;20.80;1.00
435;DHT22;204;48.942;9.256;2023-05-02T13:42:43;20.80;1.00
435;DHT22;204;48.942;9.256;2023-05-02T13:45:09;20.80;1.00
435;DHT22;204;48.942;9.256;2023-05-02T13:47:35;20.90;1.00
435;DHT22;204;48.942;9.256;2023-05-02T13:50:01;20.90;1.00
435;DHT22;204;48.942;9.256;2023-05-02T13:52:26;20.80;1.00
435;DHT22;204;48.942;9.256;2023-05-02T13:54:52;20.90;99.90
435;DHT22;204;48.942;9.256;2023-05-02T13:57:17;21.00;99.90
435;DHT22;204;48.942;9.256;2023-05-02T13:59:43;21.10;99.90
435;DHT22;204;48.942;9.256;2023-05-02T14:02:09;21.20;99.90
435;DHT22;204;48.942;9.256;2023-05-02T14:04:35;21.00;99.90
435;DHT22;204;48.942;9.256;2023-05-02T14:07:00;20.90;99.90
435;DHT22;204;48.942;9.256;2023-05-02T14:09:26;20.80;99.90
435;DHT22;204;48.942;9.256;2023-05-02T14:11:52;20.70;99.90
435;DHT22;204;48.942;9.256;2023-05-02T14:14:17;20.80;99.90
435;DHT22;204;48.942;9.256;2023-05-02T14:16:43;20.90;99.90
435;DHT22;204;48.942;9.256;2023-05-02T14:19:08;21.10;99.90
435;DHT22;204;48.942;9.256;2023-05-02T14:21:34;21.00;99.90
435;DHT22;204;48.942;9.256;2023-05-02T14:24:01;20.90;99.90
435;DHT22;204;48.942;9.256;2023-05-02T14:26:27;20.90;99.90
435;DHT22;204;48.942;9.256;2023-05-02T14:28:52;20.90;99.90
435;DHT22;204;48.942;9.256;2023-05-02T14:31:18;21.10;99.90
435;DHT22;204;48.942;9.256;2023-05-02T14:33:43;21.20;99.90
435;DHT22;204;48.942;9.256;2023-05-02T14:36:09;21.50;99.90
435;DHT22;204;48.942;9.256;2023-05-02T14:38:35;21.70;99.90
435;DHT22;204;48.942;9.256;2023-05-02T14:41:00;21.90;99.90
435;DHT22;204;48.942;9.256;2023-05-02T14:43:27;22.10;99.90
435;DHT22;204;48.942;9.256;2023-05-02T14:45:53;22.30;99.90
435;DHT22;204;48.942;9.256;2023-05-02T14:48:18;22.50;99.90
435;DHT22;204;48.942;9.256;2023-05-02T14:50:44;22.60;99.90
435;DHT22;204;48.942;9.256;2023-05-02T14:53:09;22.50;99.90
435;DHT22;204;48.942;9.256;2023-05-02T14:55:37;22.50;99.90
435;DHT22;204;48.942;9.256;2023-05-02T14:58:07;22.40;99.90
435;DHT22;204;48.942;9.256;2023-05-02T15:00:34;22.30;99.90
435;DHT22;204;48.942;9.256;2023-05-02T15:03:03;22.20;99.90
435;DHT22;204;48.942;9.256;2023-05-02T15:05:29;22.10;99.90
435;DHT22;204;48.942;9.256;2023-05-02T15:07:54;21.90;99.90
435;DHT22;204;48.942;9.256;2023-05-02T15:10:20;21.80;99.90
435;DHT22;204;48.942;9.256;2023-05-02T15:12:45;21.60;99.90
435;DHT22;204;48.942;9.256;2023-05-02T15:15:15;21.50;99.90
435;DHT22;204;48.942;9.256;2023-05-02T15:17:41;21.40;99.90
435;DHT22;204;48.942;9.256;2023-05-02T15:20:07;21.10;99.90
435;DHT22;204;48.942;9.256;2023-05-02T15:22:33;20.80;99.90
435;DHT22;204;48.942;9.256;2023-05-02T15:24:58;20.40;99.90
435;DHT22;204;48.942;9.256;2023-05-02T15:27:24;20.50;99.90
435;DHT22;204;48.942;9.256;2023-05-02T15:29:50;20.50;99.90
435;DHT22;204;48.942;9.256;2023-05-02T15:32:15;20.50;99.90
435;DHT22;204;48.942;9.256;2023-05-02T15:34:41;20.50;99.90
435;DHT22;204;48.942;9.256;2023-05-02T15:37:06;20.60;99.90
435;DHT22;204;48.942;9.256;2023-05-02T15:39:32;20.60;99.90
435;DHT22;204;48.942;9.256;2023-05-02T15:42:01;20.50;99.90
435;DHT22;204;48.942;9.256;2023-05-02T15:44:27;20.40;99.90
435;DHT22;204;48.942;9.256;2023-05-02T15:46:53;20.30;99.90
435;DHT22;204;48.942;9.256;2023-05-02T15:49:20;20.30;99.90
435;DHT22;204;48.942;9.256;2023-05-02T15:51:48;20.10;99.90
435;DHT22;204;48.942;9.256;2023-05-02T15:54:14;19.90;99.90
435;DHT22;204;48.942;9.256;2023-05-02T15:56:40;19.70;99.90
435;DHT22;204;48.942;9.256;2023-05-02T15:59:05;19.50;99.90
435;DHT22;204;48.942;9.256;2023-05-02T16:01:31;19.30;99.90
435;DHT22;204;48.942;9.256;2023-05-02T16:03:56;19.10;99.90
435;DHT22;204;48.942;9.256;2023-05-02T16:06:22;19.00;99.90
435;DHT22;204;48.942;9.256;2023-05-02T16:08:47;18.90;99.90
435;DHT22;204;48.942;9.256;2023-05-02T16:11:13;18.80;99.90
435;DHT22;204;48.942;9.256;2023-05-02T16:13:39;18.60;99.90
435;DHT22;204;48.942;9.256;2023-05-02T16:16:05;18.40;99.90
435;DHT22;204;48.942;9.256;2023-05-02T16:18:32;18.30;99.90
435;DHT22;204;48.942;9.256;2023-05-02T16:20:58;18.30;99.90
435;DHT22;204;48.942;9.256;2023-05-02T16:23:24;18.10;99.90
435;DHT22;204;48.942;9.256;2023-05-02T16:25:56;18.10;99.90
435;DHT22;204;48.942;9.256;2023-05-02T16:28:22;18.10;99.90
435;DHT22;204;48.942;9.256;2023-05-02T16:30:48;18.00;99.90
435;DHT22;204;48.942;9.256;2023-05-02T16:33:13;18.00;99.90
435;DHT22;204;48.942;9.256;2023-05-02T16:35:39;18.00;99.90
435;DHT22;204;48.942;9.256;2023-05-02T16:38:04;18.00;99.90
435;DHT22;204;48.942;9.256;2023-05-02T16:40:30;18.00;99.90
435;DHT22;204;48.942;9.256;2023-05-02T16:42:57;18.10;99.90
435;DHT22;204;48.942;9.256;2023-05-02T16:45:23;18.00;99.90
435;DHT22;204;48.942;9.256;2023-05-02T16:47:48;18.10;99.90
435;DHT22;204;48.942;9.256;2023-05-02T16:50:14;18.10;99.90
435;DHT22;204;48.942;9.256;2023-05-02T16:52:40;18.10;99.90
435;DHT22;204;48.942;9.256;2023-05-02T16:55:06;18.10;99.90
435;DHT22;204;48.942;9.256;2023-05-02T16:57:31;18.10;99.90
435;DHT22;204;48.942;9.256;2023-05-02T16:59:57;18.10;99.90
435;DHT22;204;48.942;9.256;2023-05-02T17:02:23;18.00;99.90
435;DHT22;204;48.942;9.256;2023-05-02T17:04:49;18.00;99.90
435;DHT22;204;48.942;9.256;2023-05-02T17:07:15;17.90;99.90
435;DHT22;204;48.942;9.256;2023-05-02T17:09:41;17.90;99.90
435;DHT22;204;48.942;9.256;2023-05-02T17:12:10;17.90;99.90
435;DHT22;204;48.942;9.256;2023-05-02T17:14:40;17.80;99.90
435;DHT22;204;48.942;9.256;2023-05-02T17:17:07;17.80;99.90
435;DHT22;204;48.942;9.256;2023-05-02T17:19:33;17.80;99.90
435;DHT22;204;48.942;9.256;2023-05-02T17:21:59;17.70;99.90
435;DHT22;204;48.942;9.256;2023-05-02T17:24:26;17.80;99.90
435;DHT22;204;48.942;9.256;2023-05-02T17:26:54;17.70;99.90
435;DHT22;204;48.942;9.256;2023-05-02T17:29:19;17.70;99.90
435;DHT22;204;48.942;9.256;2023-05-02T17:31:45;17.70;99.90
435;DHT22;204;48.942;9.256;2023-05-02T17:34:11;17.60;99.90
435;DHT22;204;48.942;9.256;2023-05-02T17:36:36;17.60;99.90
435;DHT22;204;48.942;9.256;2023-05-02T17:39:06;17.50;99.90
435;DHT22;204;48.942;9.256;2023-05-02T17:41:34;17.50;99.90
435;DHT22;204;48.942;9.256;2023-05-02T17:44:00;17.50;99.90
435;DHT22;204;48.942;9.256;2023-05-02T17:46:26;17.40;99.90